Aktualne dane pomiarowe

Uwaga, wersja testowa! Automatyczne pobieranie danych za pomocą narzędzi lub skryptów to umożliwiających jest zabronione.

Dane meteo z obszaru Polski uzyskane na podstawie depesz SYNOP pobieranych co godzinę z NWS. Najedź myszką na symbol przedstawiony w tabeli, aby uzyskać informacje co do jego znaczenia. Prosimy pamiętać, że to testowa wersja strony, która jeszcze nie jest ukończona. Stworzono również jest krótki FAQ dotyczący korzystania z tej podstrony Anomalie temperatury w chwili obecnej odniesione są do okresu referencyjnego 1951-2016. Okres ten będzie później zmieniony na 1981-2010. Kliknij ikonę aby pobrać plik CSV. Kliknij ikonę aby wygenerować mapę synoptyczną dla danego terminu.

Wybierz Datę:    

        

Opole (12530)

Dane terminowe dla wybranej stacji. Kliknij datę, aby otrzymać dane z tego terminu dla wszystkich stacji.

TemperaturaZachmurzenieWiatrCiśnienieOpadyPogoda
 Data t td wb tx tn tg rh  Nt Nl Cl Cm Ch ws wd g1 g2 wx mslp ppp ch 24h 12h t ww ww w1 w2  
2019-07-12 23:00:00 15.4 14.5 14.7--- 9410.0wxwxwx2wx--21010.5 991.1 -0.2---wx-w1--
2019-07-12 22:00:00 16.1 14.2 14.8--- 8915.0wxwxwxwx1wx---1010.8 991.4 0.0---wx---
2019-07-12 21:00:00 16.4 13.6 14.5--- 8415.0wxwxwxwx1wx--11010.7 991.3 0.2---wx---
2019-07-12 20:00:00 16.6 13.6 14.5--- 8220.0wx-wx1wx--11010.6 991.3 -0.1---------
2019-07-12 19:00:00 17.2 13.4 14.7--- 7820.0wxwxwxwx1wx--11010.7 991.4 0.2---------
2019-07-12 18:00:00 17.7 13.5 14.9 24.6 17.1- 7630.0wx-wx2wx--21010.4 991.1 -0.2- 0.012------
2019-07-12 17:00:00 18.3 13.3 15.0--- 7330.0wxwxwxwx2wx--21010.6 991.4 -0.1---------
2019-07-12 16:00:00 18.8 12.6 14.8--- 6740.0wxwxwxwx2wx--21010.4 991.2 -0.2---------
2019-07-12 15:00:00 19.4 13.0 15.3--- 6740.0wxwxwxwx3wx--31010.5 991.3 0.6---------
2019-07-12 14:00:00 19.3 13.6 15.6--- 7040.0wxwxwxwx4wx--41010.7 991.5 0.4---------
2019-07-12 13:00:00 20.7 13.0 15.8--- 6140.0wxwxwxwx6wx--61010.5 991.4 0.3---------
2019-07-12 12:00:00 23.5 6.4 14.0--- 3340.0wxwxwxwx1wx--11009.6 990.7 -0.8- 0.06------
2019-07-12 11:00:00 22.4 9.6 14.9--- 4440.0wxwxwxwxwx3wx--31010.1 991.1 -0.8---------
2019-07-12 10:00:00 24.3 8.4 15.2--- 3640.0wxwxwxwxwx2wx--21009.9 991.1 -1.0---------
2019-07-12 09:00:00 22.6 8.0 14.3--- 3940.0wxwxwxwxwx1wx--11010.4 991.5 -0.4---------
2019-07-12 08:00:00 21.4 9.7 14.5--- 4730.0wx-wxwx1wx--11010.9 991.9 -0.1---------
2019-07-12 07:00:00 19.7 9.7 13.8--- 5230.0wx-wxwx1wx--11011.2 992.1 0.0---------
2019-07-12 06:00:00 17.1 9.4 12.5 20.9 8.5 8 6120.0wx-wxwx2wx--21011.2 991.9 -0.2- 0.012----- 8.8
2019-07-12 05:00:00 14.1 9.0 10.9--- 7120.0wx-wxwx1wx---1011.5 992.0 -0.2---------
2019-07-12 04:00:00 10.0 8.3 8.8--- 8920.0wx-wxwx1wx--11011.9 992.1 -0.4---------
2019-07-12 03:00:00 9.0 7.1 7.7--- 8820.0wx-wx0---01012.0 992.1 -0.8---------
2019-07-12 02:00:00 9.7 7.5 8.2--- 8620.0wx-wx1wx--11012.0 992.2 -1.0---------
2019-07-12 01:00:00 11.2 7.8 9.0--- 8020.0wx-wx1wx--11012.2 992.5 -0.9---------
2019-07-12 00:00:00 13.7 7.8 10.1--- 6820.0wx-wx2wx--21012.5 992.9 -0.3- 0.06------
2019-07-11 23:00:00 12.5 7.9 9.7--- 7420.0wx-wx1wx--11012.9 993.2 0.3---------
2019-07-11 22:00:00 12.3 9.0 10.2--- 8020.0wx-wx1wx--11013.1 993.4 0.6---------
2019-07-11 21:00:00 14.5 8.5 10.9--- 6720.0wx-wx2wx--21012.7 993.2 0.7---------
2019-07-11 20:00:00 15.4 9.4 11.7--- 6720.0wx-wx1wx--11012.4 992.9 0.5---------
2019-07-11 19:00:00 18.6 8.1 12.6--- 5020.0wx-wx1wx--11012.0 992.8 0.4---------
2019-07-11 18:00:00 20.9 7.2 13.2 23.9 14.9- 4120.0wxwxwx2wx-921011.6 992.5 -0.1- 0.012------
2019-07-11 17:00:00 22.9 6.7 13.9--- 3530.0wxwxwx2wx--21011.3 992.4 -0.4---------
2019-07-11 16:00:00 23.2 6.1 13.8--- 3330.0wxwxwx2wx--21011.3 992.4 -0.5---------
2019-07-11 15:00:00 23.1 6.5 13.9--- 3430.0wxwxwx2wx-921011.5 992.6 -0.6---------
2019-07-11 14:00:00 23.8 7.5 14.6--- 3530.0wxwxwx2wx--21011.7 992.8 -0.6---------
2019-07-11 13:00:00 23.0 6.4 13.8--- 3430.0wxwxwx2wx-921011.8 992.9 -0.6---------
2019-07-11 12:00:00 21.9 7.8 13.9--- 4030.0wxwxwx3wx8831012.2 993.2 -0.5- 0.06------
2019-07-11 11:00:00 21.6 8.2 13.9--- 4230.0wxwxwx2wx--21012.4 993.4 -0.5---------
2019-07-11 10:00:00 20.6 10.2 14.4--- 5130.0wxwxwx3wx-831012.6 993.5 -0.6---------
2019-07-11 09:00:00 19.8 11.1 14.5--- 5730.0wxwxwx2wx--21012.9 993.7 -0.3---------
2019-07-11 08:00:00 18.9 10.8 13.9--- 5925.0wxwxwxwx2wx--21013.1 993.9 0.0---------
2019-07-11 07:00:00 17.1 11.9 13.8--- 7125.0wxwxwxwx2wx---1013.5 994.1 0.3---------
2019-07-11 06:00:00 14.9 11.6 12.7 14.9 12.2 11 8120.0wxwxwxwx2wx--21013.5 994.0 0.2 2.5 0.012----- 5.6
2019-07-11 05:00:00 13.8 11.4 12.2--- 8520.0wx-wx2wx--21013.5 993.9 -0.4---------
2019-07-11 04:00:00 13.1 11.3 11.8--- 8920.0wxwxwxwx2wx--21013.4 993.8 -0.6---------
2019-07-11 03:00:00 13.1 11.1 11.7--- 8820.0wxwxwxwx2wx--21013.4 993.8 -0.8---------
2019-07-11 02:00:00 13.3 11.3 11.9--- 8820.0wx-wx2wx--21013.9 994.3 -0.3---------
2019-07-11 01:00:00 13.9 11.0 12.0--- 8320.0wx-wx3wx--31014.0 994.4 -0.6---------
2019-07-11 00:00:00 13.6 10.9 11.8--- 8420.0wx-wx2wx--21014.2 994.6 -0.7- 0.06------
1.8 ms

 

Print Friendly, PDF & Email